Terminal Aerodrome Forecast
Issued by NWS

Home | Current Version | Previous Version | Text Only | Print | Product List | Glossary On
Versions: 1 2 3 4 5 6 7 8 9 10 11 12 13 14 15 16 17 18 19 20 21
000
FTAK31 PAJN 170525
TAFAJN
TAF
PAJN 170525Z 1706/1806 11011KT 5SM -RA BR FEW008 SCT025 OVC040
      WS005/18020KT
     FM170700 12008KT P6SM -SHRA SCT020 BKN040
     FM171100 VRB03KT 4SM BR FEW003 SCT015
     FM171800 30006KT P6SM SCT025 OVC035
     FM180400 08003KT P6SM OVC050=

USA.gov is the U.S. government's official web portal to all federal, state and local government web resources and services.